createdAt,value
2022-12-25T00:00:56.265Z,8.60
2022-12-25T00:03:44.698Z,8.10
2022-12-25T00:06:13.461Z,9.20
2022-12-25T00:08:42.044Z,9.80
2022-12-25T00:11:16.708Z,9.30
2022-12-25T00:13:45.993Z,10.20
2022-12-25T00:16:25.553Z,9.10
2022-12-25T00:18:54.290Z,8.90
2022-12-25T00:21:22.752Z,10.40
2022-12-25T00:23:56.451Z,8.90
2022-12-25T00:26:26.408Z,8.60
2022-12-25T00:28:56.211Z,8.60
2022-12-25T00:31:25.581Z,9.30
2022-12-25T00:33:54.385Z,8.60
2022-12-25T00:36:23.860Z,8.00
2022-12-25T00:38:51.989Z,8.40
2022-12-25T00:41:43.160Z,8.30
2022-12-25T00:44:14.038Z,8.20
2022-12-25T00:46:43.208Z,7.90
2022-12-25T00:49:11.901Z,8.00
2022-12-25T00:51:40.420Z,6.80
2022-12-25T00:54:09.172Z,7.10
2022-12-25T00:56:37.392Z,6.50
2022-12-25T00:59:05.937Z,6.70
2022-12-25T01:01:34.731Z,6.90
2022-12-25T01:04:02.999Z,7.10
2022-12-25T01:06:33.637Z,6.20
2022-12-25T01:09:20.989Z,6.70
2022-12-25T01:11:49.959Z,7.80
2022-12-25T01:14:18.185Z,6.80
2022-12-25T01:16:46.525Z,6.90
2022-12-25T01:19:14.719Z,7.00
2022-12-25T01:21:43.447Z,6.20
2022-12-25T01:24:11.536Z,7.80
2022-12-25T01:26:39.587Z,7.80
2022-12-25T01:29:07.643Z,7.20
2022-12-25T01:31:35.657Z,6.40
2022-12-25T01:34:04.017Z,6.50
2022-12-25T01:36:32.103Z,6.60
2022-12-25T01:39:24.468Z,6.60
2022-12-25T01:55:12.255Z,6.00
2022-12-25T01:57:41.617Z,6.80
2022-12-25T02:00:11.794Z,6.20
2022-12-25T02:02:42.479Z,6.20
2022-12-25T02:05:18.727Z,6.00
2022-12-25T02:07:48.518Z,6.90
2022-12-25T02:10:17.693Z,6.90
2022-12-25T02:12:47.615Z,6.60
2022-12-25T02:15:19.630Z,6.70
2022-12-25T02:18:21.300Z,7.10
2022-12-25T02:21:26.454Z,6.80
2022-12-25T02:24:13.350Z,6.10
2022-12-25T02:27:19.144Z,7.60
2022-12-25T02:30:19.847Z,7.00
2022-12-25T02:33:19.146Z,6.90
2022-12-25T02:35:54.094Z,6.50
2022-12-25T02:38:31.527Z,5.80
2022-12-25T02:41:06.239Z,6.40
2022-12-25T02:44:03.103Z,6.60
2022-12-25T02:46:52.301Z,6.40
2022-12-25T02:49:42.856Z,6.70
2022-12-25T02:52:38.190Z,5.90
2022-12-25T02:55:39.956Z,5.60
2022-12-25T02:58:34.851Z,6.20
2022-12-25T03:02:09.559Z,6.00
2022-12-25T03:04:57.769Z,6.60
2022-12-25T03:07:27.707Z,6.20
2022-12-25T03:10:27.524Z,6.20
2022-12-25T03:13:08.412Z,6.10
2022-12-25T03:15:54.998Z,5.90
2022-12-25T03:18:26.659Z,5.50
2022-12-25T03:21:13.761Z,6.00
2022-12-25T03:24:19.745Z,7.10
2022-12-25T03:27:39.576Z,5.80
2022-12-25T03:30:49.578Z,6.10
2022-12-25T03:34:16.004Z,6.60
2022-12-25T03:37:47.886Z,6.40
2022-12-25T03:46:38.246Z,5.90
2022-12-25T03:49:57.943Z,6.60
2022-12-25T03:52:49.497Z,5.80
2022-12-25T03:55:38.354Z,6.70
2022-12-25T03:58:37.878Z,6.00
2022-12-25T04:01:26.638Z,6.60
2022-12-25T04:04:15.669Z,6.10
2022-12-25T04:07:02.646Z,6.60
2022-12-25T04:09:52.711Z,5.40
2022-12-25T04:12:39.512Z,6.40
2022-12-25T04:15:27.900Z,5.50
2022-12-25T04:18:24.423Z,5.70
2022-12-25T04:21:14.281Z,6.10
2022-12-25T04:24:01.567Z,6.20
2022-12-25T04:26:48.415Z,6.00
2022-12-25T04:29:36.209Z,6.00
2022-12-25T04:32:23.579Z,5.90
2022-12-25T04:35:45.086Z,6.30
2022-12-25T04:41:59.575Z,5.70
2022-12-25T04:44:27.651Z,5.70
2022-12-25T04:46:56.814Z,5.60
2022-12-25T04:49:24.844Z,4.70
2022-12-25T04:51:52.856Z,5.00
2022-12-25T04:54:23.419Z,4.80
2022-12-25T04:56:51.477Z,5.30
2022-12-25T05:03:43.799Z,4.10
2022-12-25T05:06:11.955Z,4.40
2022-12-25T05:08:42.095Z,4.50
2022-12-25T05:11:12.547Z,5.30
2022-12-25T05:13:41.081Z,4.40
2022-12-25T05:16:15.973Z,4.40
2022-12-25T05:18:52.151Z,4.50
2022-12-25T05:21:20.692Z,4.40
2022-12-25T05:23:53.207Z,3.90
2022-12-25T05:26:24.805Z,3.90
2022-12-25T05:28:53.563Z,3.80
2022-12-25T05:31:22.386Z,4.30
2022-12-25T05:33:52.105Z,4.00
2022-12-25T05:36:20.040Z,3.90
2022-12-25T05:38:48.345Z,4.20
2022-12-25T05:41:16.695Z,4.10
2022-12-25T05:43:44.907Z,4.00
2022-12-25T05:46:14.249Z,4.40
2022-12-25T05:48:42.358Z,3.80
2022-12-25T05:51:12.691Z,3.80
2022-12-25T05:53:42.329Z,4.10
2022-12-25T05:56:11.492Z,4.00
2022-12-25T05:58:40.457Z,4.00
2022-12-25T06:01:14.665Z,4.30
2022-12-25T06:03:42.820Z,4.50
2022-12-25T06:06:11.458Z,4.40
2022-12-25T06:08:39.977Z,4.50
2022-12-25T06:11:14.416Z,4.90
2022-12-25T06:13:42.603Z,4.60
2022-12-25T06:16:12.312Z,5.10
2022-12-25T06:18:46.004Z,5.00
2022-12-25T06:21:15.577Z,4.50
